createdAt,value
2023-01-20T00:00:25.197Z,80.95
2023-01-20T00:02:51.587Z,81.26
2023-01-20T00:05:17.951Z,80.87
2023-01-20T00:07:44.326Z,80.72
2023-01-20T00:10:10.683Z,80.94
2023-01-20T00:12:37.031Z,80.84
2023-01-20T00:15:03.374Z,80.65
2023-01-20T00:17:29.694Z,81.01
2023-01-20T00:19:56.058Z,80.86
2023-01-20T00:22:22.636Z,80.83
2023-01-20T00:24:48.986Z,80.95
2023-01-20T00:27:15.566Z,80.86
2023-01-20T00:29:41.901Z,80.87
2023-01-20T00:32:08.229Z,80.94
2023-01-20T00:34:34.548Z,80.79
2023-01-20T00:37:01.118Z,80.94
2023-01-20T00:39:27.473Z,80.82
2023-01-20T00:41:53.813Z,81.06
2023-01-20T00:44:20.166Z,80.77
2023-01-20T00:46:46.581Z,80.76
2023-01-20T00:49:12.966Z,80.85
2023-01-20T00:51:39.292Z,80.93
2023-01-20T00:54:05.635Z,80.85
2023-01-20T00:56:31.970Z,81.17
2023-01-20T00:58:58.313Z,80.73
2023-01-20T01:01:25.020Z,80.81
2023-01-20T01:03:51.365Z,80.94
2023-01-20T01:06:17.707Z,80.94
2023-01-20T01:08:44.128Z,80.97
2023-01-20T01:11:10.483Z,80.80
2023-01-20T01:13:36.840Z,80.83
2023-01-20T01:16:03.260Z,80.69
2023-01-20T01:18:29.878Z,80.80
2023-01-20T01:20:56.253Z,80.71
2023-01-20T01:23:22.601Z,80.75
2023-01-20T01:25:49.155Z,80.73
2023-01-20T01:28:15.721Z,80.66
2023-01-20T01:30:42.112Z,80.80
2023-01-20T01:33:08.504Z,80.73
2023-01-20T01:35:34.853Z,80.43
2023-01-20T01:38:01.205Z,80.53
2023-01-20T01:40:27.565Z,80.50
2023-01-20T01:42:53.891Z,80.53
2023-01-20T01:45:20.248Z,80.70
2023-01-20T01:47:46.619Z,80.56
2023-01-20T01:50:12.959Z,80.56
2023-01-20T01:52:39.336Z,80.72
2023-01-20T01:55:05.660Z,80.56
2023-01-20T01:57:32.029Z,80.56
2023-01-20T01:59:58.369Z,80.55
2023-01-20T02:02:24.757Z,80.59
2023-01-20T02:04:51.154Z,80.65
2023-01-20T02:07:17.627Z,80.63
2023-01-20T02:09:43.994Z,80.55
2023-01-20T02:12:10.446Z,80.66
2023-01-20T02:14:36.800Z,80.49
2023-01-20T02:17:03.164Z,80.78
2023-01-20T02:19:29.539Z,80.69
2023-01-20T02:21:55.898Z,80.64
2023-01-20T02:24:22.226Z,80.64
2023-01-20T02:26:48.906Z,80.57
2023-01-20T02:29:15.251Z,80.52
2023-01-20T02:31:41.943Z,80.72
2023-01-20T02:34:08.307Z,80.64
2023-01-20T02:36:34.682Z,80.63
2023-01-20T02:39:01.046Z,80.60
2023-01-20T02:41:27.957Z,80.52
2023-01-20T02:43:54.307Z,80.45
2023-01-20T02:46:20.677Z,80.60
2023-01-20T02:48:47.016Z,80.79
2023-01-20T02:51:13.402Z,80.65
2023-01-20T02:53:39.802Z,80.62
2023-01-20T02:56:06.163Z,80.70
2023-01-20T02:58:32.500Z,80.59
2023-01-20T03:00:58.861Z,80.60
2023-01-20T03:03:25.237Z,80.58
2023-01-20T03:05:51.722Z,80.81
2023-01-20T03:08:18.122Z,80.62
2023-01-20T03:10:44.683Z,80.70
2023-01-20T03:13:11.050Z,80.68
2023-01-20T03:15:37.414Z,80.68
2023-01-20T03:18:03.793Z,80.69
2023-01-20T03:20:30.112Z,80.77
2023-01-20T03:22:56.433Z,80.60
2023-01-20T03:25:22.769Z,80.71
2023-01-20T03:27:49.126Z,80.54
2023-01-20T03:30:15.468Z,80.53
2023-01-20T03:32:41.823Z,80.50
2023-01-20T03:35:08.210Z,80.69
2023-01-20T03:37:34.556Z,80.57
2023-01-20T03:40:00.960Z,80.65
2023-01-20T03:42:27.326Z,80.54
2023-01-20T03:44:53.700Z,80.53
2023-01-20T03:47:20.265Z,80.46
2023-01-20T03:49:46.635Z,80.66
2023-01-20T03:52:13.019Z,80.57
2023-01-20T03:54:39.613Z,80.56
2023-01-20T03:57:05.964Z,80.51
2023-01-20T03:59:32.326Z,80.75
2023-01-20T04:01:58.872Z,80.61
2023-01-20T04:04:25.301Z,80.56
2023-01-20T04:06:51.670Z,80.56
2023-01-20T04:09:18.039Z,80.72
2023-01-20T04:11:44.384Z,80.88
2023-01-20T04:14:10.788Z,80.52
2023-01-20T04:16:37.369Z,80.57
2023-01-20T04:19:03.925Z,80.67
2023-01-20T04:21:30.288Z,80.72
2023-01-20T04:23:56.628Z,80.67
2023-01-20T04:26:22.976Z,80.80
2023-01-20T04:28:49.318Z,80.77
2023-01-20T04:31:29.480Z,80.80
2023-01-20T04:33:57.048Z,80.70
2023-01-20T04:36:23.410Z,80.70
2023-01-20T04:38:49.768Z,80.56
2023-01-20T04:41:16.137Z,80.64
2023-01-20T04:43:42.431Z,80.47
2023-01-20T04:46:09.000Z,80.67
2023-01-20T04:48:35.374Z,80.64
2023-01-20T04:51:01.728Z,80.65
2023-01-20T04:53:28.054Z,80.64
2023-01-20T04:55:54.414Z,80.60
2023-01-20T04:58:20.765Z,80.54
2023-01-20T05:00:47.118Z,80.55
2023-01-20T05:03:13.454Z,80.40
2023-01-20T05:05:39.787Z,80.68
2023-01-20T05:08:06.143Z,80.50
2023-01-20T05:10:32.500Z,80.44
2023-01-20T05:12:58.860Z,80.32
2023-01-20T05:15:25.189Z,80.20
2023-01-20T05:17:51.529Z,80.33
2023-01-20T05:20:17.961Z,80.37
2023-01-20T05:22:44.299Z,80.35
2023-01-20T05:25:10.651Z,80.41
2023-01-20T05:27:37.199Z,80.42
2023-01-20T05:30:03.557Z,80.24
2023-01-20T05:32:29.937Z,80.34
2023-01-20T05:34:56.302Z,80.12
2023-01-20T05:37:22.677Z,80.22
2023-01-20T05:39:49.038Z,80.18
2023-01-20T05:42:15.390Z,80.23
2023-01-20T05:44:41.714Z,80.14
2023-01-20T05:47:08.074Z,80.11
2023-01-20T05:49:34.400Z,80.00
2023-01-20T05:52:00.747Z,80.04
2023-01-20T05:54:27.081Z,80.16
2023-01-20T05:56:53.823Z,80.08
2023-01-20T05:59:20.187Z,80.11
2023-01-20T06:01:46.558Z,80.03
2023-01-20T06:04:12.922Z,79.99
2023-01-20T06:06:39.260Z,80.09
2023-01-20T06:09:05.602Z,80.07
2023-01-20T06:11:31.971Z,79.83
2023-01-20T06:13:58.309Z,79.84
2023-01-20T06:16:24.662Z,79.95
2023-01-20T06:18:51.061Z,79.84
2023-01-20T06:21:17.440Z,79.93
2023-01-20T06:23:44.032Z,79.85
2023-01-20T06:26:10.393Z,79.85
2023-01-20T06:28:36.731Z,79.79
2023-01-20T06:31:03.234Z,79.93
2023-01-20T06:33:29.679Z,79.88
2023-01-20T06:35:56.035Z,79.93
2023-01-20T06:38:22.422Z,79.85
2023-01-20T06:40:48.965Z,80.02
2023-01-20T06:43:15.325Z,79.64
2023-01-20T06:45:41.688Z,79.86
2023-01-20T06:48:08.045Z,79.72
2023-01-20T06:50:34.349Z,79.64
2023-01-20T06:53:00.685Z,79.78
2023-01-20T06:55:27.005Z,79.66
2023-01-20T06:57:53.359Z,79.76
2023-01-20T07:00:19.705Z,79.72
2023-01-20T07:02:46.114Z,79.78
2023-01-20T07:05:12.865Z,79.54
2023-01-20T07:07:39.374Z,79.75
2023-01-20T07:10:05.727Z,79.56
2023-01-20T07:12:32.077Z,79.67
2023-01-20T07:14:58.640Z,79.73
2023-01-20T07:17:25.197Z,80.03
2023-01-20T07:19:51.536Z,79.77
2023-01-20T07:22:17.874Z,79.63
2023-01-20T07:24:44.216Z,79.78
2023-01-20T07:27:10.559Z,79.85
2023-01-20T07:29:36.908Z,79.94
2023-01-20T07:32:03.278Z,79.83
2023-01-20T07:34:29.841Z,80.14
2023-01-20T07:36:56.218Z,79.96
2023-01-20T07:39:22.646Z,79.82
2023-01-20T07:41:48.999Z,79.90
2023-01-20T07:44:15.362Z,79.94
2023-01-20T07:46:41.703Z,80.78
2023-01-20T07:49:09.635Z,80.25
2023-01-20T07:51:37.655Z,79.58
2023-01-20T07:54:04.003Z,80.17
2023-01-20T07:56:30.373Z,80.26
2023-01-20T07:58:56.744Z,80.72
2023-01-20T08:01:23.204Z,80.77
2023-01-20T08:03:49.616Z,80.53
2023-01-20T08:06:16.028Z,80.57
2023-01-20T08:08:42.430Z,80.31
2023-01-20T08:11:08.813Z,80.29
2023-01-20T08:13:35.236Z,80.15
2023-01-20T08:16:01.624Z,80.03
2023-01-20T08:18:28.677Z,80.21
2023-01-20T08:20:55.030Z,80.01
2023-01-20T08:23:21.405Z,80.00
2023-01-20T08:25:47.786Z,80.06
2023-01-20T08:28:14.352Z,79.90
2023-01-20T08:30:40.789Z,80.08
2023-01-20T08:33:07.420Z,80.03
2023-01-20T08:35:33.768Z,79.84
2023-01-20T08:38:00.094Z,79.08
2023-01-20T08:40:26.450Z,78.59
2023-01-20T08:42:52.809Z,78.96
2023-01-20T08:45:19.137Z,78.58
2023-01-20T08:47:45.491Z,78.47
2023-01-20T08:50:12.054Z,78.68
2023-01-20T08:52:38.371Z,78.79
2023-01-20T08:55:04.727Z,78.74
2023-01-20T08:57:31.101Z,78.73
2023-01-20T08:59:57.471Z,78.98
2023-01-20T09:02:23.880Z,79.05
2023-01-20T09:04:50.271Z,79.08
2023-01-20T09:07:16.645Z,79.15
2023-01-20T09:09:42.989Z,79.35
2023-01-20T09:12:09.553Z,79.24
2023-01-20T09:14:35.891Z,79.50
2023-01-20T09:17:02.240Z,79.64
2023-01-20T09:19:28.577Z,79.52
2023-01-20T09:21:54.925Z,79.42
2023-01-20T09:24:21.258Z,79.67
2023-01-20T09:26:47.613Z,79.78
2023-01-20T09:29:14.197Z,79.85
2023-01-20T09:31:40.727Z,79.58
2023-01-20T09:34:07.146Z,79.73
2023-01-20T09:36:33.715Z,79.82
2023-01-20T09:39:00.103Z,79.90
2023-01-20T09:41:26.442Z,79.87
2023-01-20T09:43:52.777Z,79.74
2023-01-20T09:46:19.223Z,79.83
2023-01-20T09:48:45.867Z,79.69
2023-01-20T09:51:12.221Z,79.75
2023-01-20T09:53:38.771Z,79.91
2023-01-20T09:56:07.041Z,79.53
2023-01-20T09:58:34.980Z,78.30
2023-01-20T10:01:01.576Z,77.38
2023-01-20T10:03:27.930Z,77.57
2023-01-20T10:05:54.263Z,78.91
2023-01-20T10:08:20.579Z,78.13
2023-01-20T10:10:46.902Z,77.86
2023-01-20T10:13:13.228Z,78.68
2023-01-20T10:15:39.591Z,79.35
2023-01-20T10:18:06.004Z,78.85
2023-01-20T10:20:32.429Z,79.01
2023-01-20T10:22:59.035Z,79.06
2023-01-20T10:25:25.368Z,79.60
2023-01-20T10:27:51.711Z,79.33
2023-01-20T10:30:18.298Z,79.72
2023-01-20T10:32:44.729Z,79.29
2023-01-20T10:35:11.140Z,79.38
2023-01-20T10:37:37.687Z,79.66
2023-01-20T10:40:04.048Z,79.54
2023-01-20T10:42:30.408Z,79.78
2023-01-20T10:44:56.963Z,79.50
2023-01-20T10:47:23.308Z,79.82
2023-01-20T10:49:49.649Z,79.73
2023-01-20T10:52:15.989Z,79.87
2023-01-20T10:54:42.546Z,80.05
2023-01-20T10:57:08.869Z,79.86
2023-01-20T10:59:35.243Z,79.95
2023-01-20T11:02:11.515Z,79.91
2023-01-20T11:04:39.040Z,80.02
2023-01-20T11:07:05.376Z,80.56
2023-01-20T11:09:31.754Z,80.29
2023-01-20T11:11:58.305Z,80.15
2023-01-20T11:14:26.138Z,80.15
2023-01-20T11:16:52.791Z,80.54
2023-01-20T11:19:19.144Z,80.44
2023-01-20T11:21:45.728Z,80.23
2023-01-20T11:24:12.049Z,79.96
2023-01-20T11:26:38.593Z,80.05
2023-01-20T11:29:04.948Z,80.15
2023-01-20T11:31:31.341Z,80.32
2023-01-20T11:33:57.701Z,80.14
2023-01-20T11:36:24.104Z,80.35
2023-01-20T11:38:50.473Z,80.51
2023-01-20T11:41:16.830Z,80.55
2023-01-20T11:43:43.377Z,80.47
2023-01-20T11:46:09.733Z,80.39
2023-01-20T11:48:36.343Z,80.45
2023-01-20T11:51:02.681Z,80.29
2023-01-20T11:53:29.223Z,80.27
2023-01-20T11:55:55.578Z,80.24
2023-01-20T11:58:21.914Z,80.55
2023-01-20T12:00:48.282Z,80.45
2023-01-20T12:03:14.678Z,80.41
2023-01-20T12:05:41.059Z,80.76
2023-01-20T12:08:07.421Z,80.79
2023-01-20T12:10:33.800Z,80.56
2023-01-20T12:13:00.152Z,80.56
2023-01-20T12:15:26.505Z,80.74
2023-01-20T12:17:52.840Z,80.50
2023-01-20T12:20:19.195Z,80.63
2023-01-20T12:22:45.753Z,80.66
2023-01-20T12:25:12.085Z,80.59
2023-01-20T12:27:38.409Z,80.63
2023-01-20T12:30:04.746Z,80.77
2023-01-20T12:32:31.066Z,80.93
2023-01-20T12:34:57.435Z,80.79
2023-01-20T12:37:23.778Z,80.95
2023-01-20T12:39:50.161Z,80.87
2023-01-20T12:42:16.714Z,80.87
2023-01-20T12:44:43.052Z,81.05
2023-01-20T12:47:09.484Z,81.47
2023-01-20T12:49:35.835Z,81.04
2023-01-20T12:52:02.412Z,80.73
2023-01-20T12:54:39.335Z,80.58
2023-01-20T12:57:14.211Z,80.81
2023-01-20T12:59:40.558Z,80.77
2023-01-20T13:02:06.891Z,80.93
2023-01-20T13:04:33.274Z,81.03
2023-01-20T13:06:59.648Z,80.95
2023-01-20T13:09:26.197Z,81.08
2023-01-20T13:11:52.548Z,80.79
2023-01-20T13:14:18.910Z,80.73
2023-01-20T13:16:45.654Z,80.58
2023-01-20T13:19:12.037Z,80.53
2023-01-20T13:21:38.579Z,80.70
2023-01-20T13:24:04.927Z,80.77
2023-01-20T13:26:31.290Z,80.55
2023-01-20T13:28:57.872Z,80.73
2023-01-20T13:31:24.311Z,80.75
2023-01-20T13:33:50.718Z,80.78
2023-01-20T13:36:17.521Z,80.24
2023-01-20T13:38:43.875Z,80.26
2023-01-20T13:41:10.418Z,80.56
2023-01-20T13:43:36.754Z,80.36
2023-01-20T13:46:03.167Z,80.23
2023-01-20T13:48:29.561Z,80.15
2023-01-20T13:50:55.927Z,80.18
2023-01-20T13:53:22.296Z,80.25
2023-01-20T13:55:48.678Z,80.09
2023-01-20T13:58:15.231Z,80.40
2023-01-20T14:00:41.795Z,80.44
2023-01-20T14:03:08.150Z,80.46
2023-01-20T14:05:34.710Z,80.57
2023-01-20T14:08:01.067Z,80.49
2023-01-20T14:10:27.413Z,80.57
2023-01-20T14:12:53.776Z,80.49
2023-01-20T14:15:20.147Z,80.61
2023-01-20T14:17:46.518Z,80.60
2023-01-20T14:20:12.869Z,80.57
2023-01-20T14:22:39.236Z,80.70
2023-01-20T14:25:05.585Z,80.72
2023-01-20T14:27:31.983Z,80.85
2023-01-20T14:29:58.367Z,80.82
2023-01-20T14:32:24.954Z,80.79
2023-01-20T14:34:51.289Z,80.69
2023-01-20T14:37:17.615Z,80.69
2023-01-20T14:39:43.944Z,80.60
2023-01-20T14:42:10.300Z,80.80
2023-01-20T14:44:36.660Z,80.83
2023-01-20T14:47:02.993Z,80.70
2023-01-20T14:49:29.346Z,80.67
2023-01-20T14:51:55.925Z,80.78
2023-01-20T14:54:22.257Z,80.86
2023-01-20T14:56:48.612Z,80.89
2023-01-20T14:59:14.967Z,80.83
2023-01-20T15:01:41.587Z,80.71
2023-01-20T15:04:07.969Z,81.01
2023-01-20T15:09:21.904Z,80.72
2023-01-20T15:11:48.291Z,81.01
2023-01-20T15:14:14.672Z,80.61
2023-01-20T15:16:41.241Z,80.67
2023-01-20T15:19:07.582Z,80.71
2023-01-20T15:21:34.123Z,80.67
2023-01-20T15:24:00.454Z,80.67
2023-01-20T15:26:26.816Z,80.94
2023-01-20T15:28:53.155Z,80.92
2023-01-20T15:31:19.836Z,80.87
2023-01-20T15:33:46.350Z,80.91
2023-01-20T15:36:12.698Z,80.99
2023-01-20T15:38:39.046Z,81.45
2023-01-20T15:41:05.613Z,81.08
2023-01-20T15:43:31.972Z,81.07
2023-01-20T15:45:58.311Z,81.05
2023-01-20T15:48:24.709Z,81.17
2023-01-20T15:50:51.155Z,81.15
2023-01-20T15:53:17.551Z,81.10
2023-01-20T15:55:44.086Z,81.22
2023-01-20T15:58:10.411Z,81.10
2023-01-20T16:00:36.743Z,81.14
2023-01-20T16:03:03.069Z,80.87
2023-01-20T16:05:29.448Z,80.98
2023-01-20T16:07:55.779Z,80.87
2023-01-20T16:10:22.110Z,80.85
2023-01-20T16:12:48.456Z,80.97
2023-01-20T16:15:14.797Z,81.36
2023-01-20T16:17:41.159Z,81.12
2023-01-20T16:20:07.501Z,81.05
2023-01-20T16:22:37.418Z,81.10
2023-01-20T16:25:03.756Z,80.94
2023-01-20T16:27:30.106Z,81.07
2023-01-20T16:29:56.451Z,80.92
2023-01-20T16:32:23.043Z,80.80
2023-01-20T16:34:49.415Z,80.73
2023-01-20T16:37:15.803Z,80.67
2023-01-20T16:39:43.359Z,80.79
2023-01-20T16:42:09.724Z,80.62
2023-01-20T16:44:36.046Z,80.53
2023-01-20T16:47:02.380Z,80.83
2023-01-20T16:49:28.721Z,80.81
2023-01-20T16:51:55.072Z,80.64
2023-01-20T16:54:22.434Z,80.73
2023-01-20T16:56:48.748Z,80.79
2023-01-20T16:59:15.301Z,80.70
2023-01-20T17:01:42.435Z,80.47
2023-01-20T17:04:08.776Z,80.60
2023-01-20T17:06:35.329Z,80.65
2023-01-20T17:09:01.900Z,80.10
2023-01-20T17:11:28.282Z,80.41
2023-01-20T17:13:54.629Z,80.38
2023-01-20T17:16:21.048Z,80.41
2023-01-20T17:18:47.408Z,80.26
2023-01-20T17:21:13.756Z,80.08
2023-01-20T17:23:40.323Z,80.24
2023-01-20T17:26:06.684Z,80.21
2023-01-20T17:28:33.035Z,80.28
2023-01-20T17:30:59.407Z,80.42
2023-01-20T17:33:25.987Z,80.50
2023-01-20T17:35:52.349Z,79.94
2023-01-20T17:38:18.698Z,80.07
2023-01-20T17:40:45.050Z,80.09
2023-01-20T17:43:11.374Z,80.04
2023-01-20T17:45:37.755Z,80.02
2023-01-20T17:48:04.706Z,80.01
2023-01-20T17:50:31.184Z,79.96
2023-01-20T17:52:57.523Z,79.97
2023-01-20T17:55:24.054Z,79.87
2023-01-20T17:57:50.417Z,79.88
2023-01-20T18:00:17.050Z,79.86
2023-01-20T18:02:43.584Z,79.98
2023-01-20T18:05:09.972Z,80.03
2023-01-20T18:07:36.322Z,79.91
2023-01-20T18:10:02.664Z,80.10
2023-01-20T18:12:29.027Z,79.56
2023-01-20T18:14:55.414Z,79.73
2023-01-20T18:17:21.765Z,79.78
2023-01-20T18:19:48.122Z,79.68
2023-01-20T18:22:14.507Z,79.79
2023-01-20T18:24:40.861Z,80.01
2023-01-20T18:27:07.271Z,79.62
2023-01-20T18:29:33.621Z,79.52
2023-01-20T18:32:00.045Z,79.55
2023-01-20T18:34:26.501Z,79.64
2023-01-20T18:36:52.831Z,79.64
2023-01-20T18:39:19.234Z,79.51
2023-01-20T18:41:45.599Z,79.63
2023-01-20T18:44:12.185Z,79.47
2023-01-20T18:46:38.740Z,79.49
2023-01-20T18:49:06.153Z,79.51
2023-01-20T18:51:33.792Z,79.50
2023-01-20T18:54:00.151Z,79.43
2023-01-20T18:56:26.712Z,79.56
2023-01-20T18:58:53.077Z,79.26
2023-01-20T19:01:19.695Z,79.38
2023-01-20T19:03:46.123Z,79.59
2023-01-20T19:06:12.715Z,79.28
2023-01-20T19:08:39.097Z,79.17
2023-01-20T19:11:05.455Z,79.21
2023-01-20T19:13:31.826Z,79.04
2023-01-20T19:15:58.290Z,79.26
2023-01-20T19:18:24.671Z,79.28
2023-01-20T19:20:51.014Z,79.20
2023-01-20T19:23:17.601Z,78.82
2023-01-20T19:25:44.228Z,79.15
2023-01-20T19:28:10.597Z,78.90
2023-01-20T19:30:37.189Z,79.07
2023-01-20T19:33:03.594Z,79.06
2023-01-20T19:35:29.944Z,78.93
2023-01-20T19:37:56.277Z,79.10
2023-01-20T19:40:22.680Z,78.85
2023-01-20T19:42:49.029Z,78.97
2023-01-20T19:45:15.347Z,78.95
2023-01-20T19:47:41.676Z,78.91
2023-01-20T19:50:08.055Z,78.98
2023-01-20T19:52:34.402Z,78.96
2023-01-20T19:55:00.779Z,78.69
2023-01-20T19:57:27.375Z,78.86
2023-01-20T19:59:53.742Z,78.91
2023-01-20T20:02:20.111Z,78.81
2023-01-20T20:04:46.491Z,78.92
2023-01-20T20:07:12.838Z,78.87
2023-01-20T20:09:39.175Z,78.86
2023-01-20T20:12:05.751Z,78.73
2023-01-20T20:14:32.109Z,78.99
2023-01-20T20:16:58.472Z,78.69
2023-01-20T20:19:24.803Z,78.69
2023-01-20T20:21:51.168Z,78.78
2023-01-20T20:24:17.513Z,78.76
2023-01-20T20:26:43.901Z,78.80
2023-01-20T20:29:10.292Z,78.72
2023-01-20T20:31:36.832Z,78.68
2023-01-20T20:34:03.454Z,78.89
2023-01-20T20:36:29.802Z,78.63
2023-01-20T20:38:56.122Z,78.40
2023-01-20T20:41:22.460Z,78.83
2023-01-20T20:43:48.792Z,78.83
2023-01-20T20:46:15.172Z,78.64
2023-01-20T20:48:41.569Z,78.41
2023-01-20T20:51:08.215Z,78.78
2023-01-20T20:53:34.577Z,78.64
2023-01-20T20:56:00.950Z,78.79
2023-01-20T20:58:27.319Z,78.88
2023-01-20T21:00:53.700Z,78.35
2023-01-20T21:03:22.879Z,78.51
2023-01-20T21:05:49.228Z,78.67
2023-01-20T21:08:15.592Z,78.63
2023-01-20T21:10:41.946Z,78.50
2023-01-20T21:13:08.299Z,78.45
2023-01-20T21:15:34.636Z,78.65
2023-01-20T21:18:00.967Z,78.34
2023-01-20T21:20:27.315Z,78.35
2023-01-20T21:22:53.680Z,78.46
2023-01-20T21:25:20.044Z,78.21
2023-01-20T21:27:46.375Z,78.57
2023-01-20T21:30:12.745Z,78.28
2023-01-20T21:32:39.313Z,78.54
2023-01-20T21:35:05.653Z,78.40
2023-01-20T21:37:32.003Z,78.31
2023-01-20T21:39:58.330Z,78.63
2023-01-20T21:42:24.697Z,78.55
2023-01-20T21:44:51.044Z,78.37
2023-01-20T21:47:17.406Z,78.64
2023-01-20T21:49:43.746Z,78.41
2023-01-20T21:52:10.326Z,78.59
2023-01-20T21:54:36.664Z,78.28
2023-01-20T21:57:03.020Z,78.28
2023-01-20T21:59:29.395Z,78.44
2023-01-20T22:01:55.819Z,78.43
2023-01-20T22:04:22.227Z,78.26
2023-01-20T22:06:48.587Z,78.39
2023-01-20T22:09:14.961Z,78.19
2023-01-20T22:11:41.538Z,78.34
2023-01-20T22:14:07.891Z,78.23
2023-01-20T22:16:34.312Z,78.24
2023-01-20T22:19:00.675Z,77.98
2023-01-20T22:21:27.223Z,78.19
2023-01-20T22:23:53.583Z,78.19
2023-01-20T22:26:19.935Z,77.88
2023-01-20T22:28:46.513Z,78.23
2023-01-20T22:31:12.918Z,78.21
2023-01-20T22:33:39.522Z,78.13
2023-01-20T22:36:05.869Z,77.95
2023-01-20T22:38:32.226Z,77.98
2023-01-20T22:40:58.792Z,78.06
2023-01-20T22:43:25.133Z,78.10
2023-01-20T22:45:51.475Z,77.77
2023-01-20T22:48:17.836Z,77.96
2023-01-20T22:50:44.232Z,78.01
2023-01-20T22:53:10.572Z,77.89
2023-01-20T22:55:38.858Z,78.01
2023-01-20T22:58:07.887Z,78.05
2023-01-20T23:00:34.286Z,77.80
2023-01-20T23:03:00.663Z,78.01
2023-01-20T23:05:27.034Z,78.06
2023-01-20T23:07:53.391Z,77.84
2023-01-20T23:10:19.745Z,77.98
2023-01-20T23:12:46.084Z,78.00
2023-01-20T23:15:12.427Z,77.97
2023-01-20T23:17:38.753Z,78.05
2023-01-20T23:20:05.151Z,77.74
2023-01-20T23:22:31.542Z,77.82
2023-01-20T23:24:57.889Z,77.74
2023-01-20T23:27:24.254Z,78.00
2023-01-20T23:29:50.613Z,77.81
2023-01-20T23:32:16.944Z,77.72
2023-01-20T23:34:43.266Z,77.72
2023-01-20T23:37:09.805Z,77.80
2023-01-20T23:39:36.372Z,77.81
2023-01-20T23:42:02.731Z,77.65
2023-01-20T23:44:29.061Z,77.53
2023-01-20T23:46:55.400Z,77.59
2023-01-20T23:49:22.791Z,77.34
2023-01-20T23:51:49.286Z,77.47
2023-01-20T23:54:15.655Z,77.58
2023-01-20T23:56:42.023Z,77.79
2023-01-20T23:59:08.354Z,77.54
